sensor_id;sensor_type;location;lat;lon;timestamp;temperature;humidity
59533;DHT22;45351;53.596;10.000;2022-07-06T00:01:21;25.00;50.00
59533;DHT22;45351;53.596;10.000;2022-07-06T00:03:50;25.00;50.00
59533;DHT22;45351;53.596;10.000;2022-07-06T00:06:16;25.00;50.10
59533;DHT22;45351;53.596;10.000;2022-07-06T00:08:44;25.00;50.20
59533;DHT22;45351;53.596;10.000;2022-07-06T00:11:11;25.00;50.70
59533;DHT22;45351;53.596;10.000;2022-07-06T00:13:38;25.00;50.70
59533;DHT22;45351;53.596;10.000;2022-07-06T00:16:05;25.00;50.70
59533;DHT22;45351;53.596;10.000;2022-07-06T00:18:31;24.90;50.70
59533;DHT22;45351;53.596;10.000;2022-07-06T00:21:00;25.00;50.80
59533;DHT22;45351;53.596;10.000;2022-07-06T00:23:26;24.90;50.70
59533;DHT22;45351;53.596;10.000;2022-07-06T00:25:53;25.00;50.80
59533;DHT22;45351;53.596;10.000;2022-07-06T00:28:20;25.00;50.80
59533;DHT22;45351;53.596;10.000;2022-07-06T00:30:47;25.00;50.80
59533;DHT22;45351;53.596;10.000;2022-07-06T00:33:14;25.00;50.80
59533;DHT22;45351;53.596;10.000;2022-07-06T00:35:41;25.00;50.70
59533;DHT22;45351;53.596;10.000;2022-07-06T00:38:09;24.90;50.60
59533;DHT22;45351;53.596;10.000;2022-07-06T00:40:36;25.00;50.70
59533;DHT22;45351;53.596;10.000;2022-07-06T00:43:03;25.00;50.70
59533;DHT22;45351;53.596;10.000;2022-07-06T00:45:30;25.00;50.70
59533;DHT22;45351;53.596;10.000;2022-07-06T00:47:57;24.90;50.50
59533;DHT22;45351;53.596;10.000;2022-07-06T00:50:24;25.00;50.60
59533;DHT22;45351;53.596;10.000;2022-07-06T00:52:52;24.90;50.60
59533;DHT22;45351;53.596;10.000;2022-07-06T00:55:23;25.00;50.60
59533;DHT22;45351;53.596;10.000;2022-07-06T00:57:50;25.00;50.60
59533;DHT22;45351;53.596;10.000;2022-07-06T01:00:20;24.90;50.60
59533;DHT22;45351;53.596;10.000;2022-07-06T01:02:48;24.90;50.50
59533;DHT22;45351;53.596;10.000;2022-07-06T01:05:16;24.90;50.50
59533;DHT22;45351;53.596;10.000;2022-07-06T01:07:44;24.90;50.60
59533;DHT22;45351;53.596;10.000;2022-07-06T01:10:12;24.90;50.50
59533;DHT22;45351;53.596;10.000;2022-07-06T01:12:42;24.90;50.60
59533;DHT22;45351;53.596;10.000;2022-07-06T01:15:10;24.90;50.60
59533;DHT22;45351;53.596;10.000;2022-07-06T01:17:39;24.90;50.60
59533;DHT22;45351;53.596;10.000;2022-07-06T01:20:10;24.90;50.60
59533;DHT22;45351;53.596;10.000;2022-07-06T01:22:37;24.90;51.20
59533;DHT22;45351;53.596;10.000;2022-07-06T01:25:05;24.90;50.60
59533;DHT22;45351;53.596;10.000;2022-07-06T01:27:33;24.90;50.60
59533;DHT22;45351;53.596;10.000;2022-07-06T01:30:04;24.90;50.60
59533;DHT22;45351;53.596;10.000;2022-07-06T01:32:31;24.90;50.60
59533;DHT22;45351;53.596;10.000;2022-07-06T01:34:58;24.90;50.60
59533;DHT22;45351;53.596;10.000;2022-07-06T01:37:27;24.90;50.70
59533;DHT22;45351;53.596;10.000;2022-07-06T01:39:57;24.90;50.80
59533;DHT22;45351;53.596;10.000;2022-07-06T01:42:23;24.90;50.80
59533;DHT22;45351;53.596;10.000;2022-07-06T01:44:50;24.90;50.90
59533;DHT22;45351;53.596;10.000;2022-07-06T01:47:17;24.90;51.50
59533;DHT22;45351;53.596;10.000;2022-07-06T01:50:05;24.90;50.80
59533;DHT22;45351;53.596;10.000;2022-07-06T01:52:56;24.90;51.50
59533;DHT22;45351;53.596;10.000;2022-07-06T01:55:46;24.90;50.80
59533;DHT22;45351;53.596;10.000;2022-07-06T01:58:33;24.90;50.80
59533;DHT22;45351;53.596;10.000;2022-07-06T02:01:21;24.90;50.80
59533;DHT22;45351;53.596;10.000;2022-07-06T02:04:08;24.90;50.80
59533;DHT22;45351;53.596;10.000;2022-07-06T02:06:34;24.90;50.80
59533;DHT22;45351;53.596;10.000;2022-07-06T02:09:03;24.90;50.80
59533;DHT22;45351;53.596;10.000;2022-07-06T02:11:31;24.90;50.70
59533;DHT22;45351;53.596;10.000;2022-07-06T02:13:58;24.90;50.70
59533;DHT22;45351;53.596;10.000;2022-07-06T02:16:25;24.90;50.60
59533;DHT22;45351;53.596;10.000;2022-07-06T02:18:52;24.90;50.60
59533;DHT22;45351;53.596;10.000;2022-07-06T02:21:19;24.90;50.60
59533;DHT22;45351;53.596;10.000;2022-07-06T02:23:46;24.90;50.70
59533;DHT22;45351;53.596;10.000;2022-07-06T02:26:14;24.90;50.70
59533;DHT22;45351;53.596;10.000;2022-07-06T02:28:43;24.90;50.60
59533;DHT22;45351;53.596;10.000;2022-07-06T02:31:11;24.90;50.60
59533;DHT22;45351;53.596;10.000;2022-07-06T02:33:39;24.90;50.50
59533;DHT22;45351;53.596;10.000;2022-07-06T02:36:06;24.90;50.50
59533;DHT22;45351;53.596;10.000;2022-07-06T02:38:33;24.90;50.50
59533;DHT22;45351;53.596;10.000;2022-07-06T02:41:00;24.90;50.50
59533;DHT22;45351;53.596;10.000;2022-07-06T02:43:29;24.90;50.60
59533;DHT22;45351;53.596;10.000;2022-07-06T02:45:56;24.90;50.60
59533;DHT22;45351;53.596;10.000;2022-07-06T02:48:23;24.90;50.60
59533;DHT22;45351;53.596;10.000;2022-07-06T02:50:51;24.90;50.60
59533;DHT22;45351;53.596;10.000;2022-07-06T02:53:18;24.90;50.60
59533;DHT22;45351;53.596;10.000;2022-07-06T02:55:48;24.90;50.60
59533;DHT22;45351;53.596;10.000;2022-07-06T02:58:14;24.90;50.60
59533;DHT22;45351;53.596;10.000;2022-07-06T03:00:43;24.90;51.20
59533;DHT22;45351;53.596;10.000;2022-07-06T03:03:10;24.90;50.60
59533;DHT22;45351;53.596;10.000;2022-07-06T03:05:37;24.90;50.60
59533;DHT22;45351;53.596;10.000;2022-07-06T03:08:04;24.90;50.60
59533;DHT22;45351;53.596;10.000;2022-07-06T03:10:33;24.90;50.60
59533;DHT22;45351;53.596;10.000;2022-07-06T03:13:00;24.90;50.60
59533;DHT22;45351;53.596;10.000;2022-07-06T03:15:27;24.90;50.70
59533;DHT22;45351;53.596;10.000;2022-07-06T03:17:55;24.90;50.70
59533;DHT22;45351;53.596;10.000;2022-07-06T03:20:22;24.90;50.70
59533;DHT22;45351;53.596;10.000;2022-07-06T03:22:51;24.90;50.70
59533;DHT22;45351;53.596;10.000;2022-07-06T03:25:18;24.90;50.70
59533;DHT22;45351;53.596;10.000;2022-07-06T03:27:45;24.90;50.70
59533;DHT22;45351;53.596;10.000;2022-07-06T03:30:15;24.90;50.70
59533;DHT22;45351;53.596;10.000;2022-07-06T03:32:48;24.90;50.60
59533;DHT22;45351;53.596;10.000;2022-07-06T03:35:17;24.90;50.60
59533;DHT22;45351;53.596;10.000;2022-07-06T03:37:45;24.90;50.70
59533;DHT22;45351;53.596;10.000;2022-07-06T03:40:13;24.90;50.70
59533;DHT22;45351;53.596;10.000;2022-07-06T03:42:40;24.90;50.60
59533;DHT22;45351;53.596;10.000;2022-07-06T03:45:10;24.90;50.60
59533;DHT22;45351;53.596;10.000;2022-07-06T03:47:37;24.90;50.60
59533;DHT22;45351;53.596;10.000;2022-07-06T03:50:06;24.90;50.60
59533;DHT22;45351;53.596;10.000;2022-07-06T03:52:35;24.90;50.60
59533;DHT22;45351;53.596;10.000;2022-07-06T03:55:07;24.90;50.50
59533;DHT22;45351;53.596;10.000;2022-07-06T03:57:34;24.80;50.40
59533;DHT22;45351;53.596;10.000;2022-07-06T04:00:04;24.80;50.40
59533;DHT22;45351;53.596;10.000;2022-07-06T04:02:40;24.90;50.50
59533;DHT22;45351;53.596;10.000;2022-07-06T04:05:10;24.90;50.50
59533;DHT22;45351;53.596;10.000;2022-07-06T04:07:39;24.80;50.30
59533;DHT22;45351;53.596;10.000;2022-07-06T04:10:07;24.90;50.60
59533;DHT22;45351;53.596;10.000;2022-07-06T04:12:39;24.80;50.50
59533;DHT22;45351;53.596;10.000;2022-07-06T04:15:07;24.90;50.70
59533;DHT22;45351;53.596;10.000;2022-07-06T04:17:35;24.80;50.60
59533;DHT22;45351;53.596;10.000;2022-07-06T04:20:37;24.80;50.50
59533;DHT22;45351;53.596;10.000;2022-07-06T04:23:05;24.80;50.50
59533;DHT22;45351;53.596;10.000;2022-07-06T04:25:32;24.80;50.50
59533;DHT22;45351;53.596;10.000;2022-07-06T04:28:02;24.90;50.60
59533;DHT22;45351;53.596;10.000;2022-07-06T04:30:31;24.90;50.50
59533;DHT22;45351;53.596;10.000;2022-07-06T04:32:58;24.90;50.50
59533;DHT22;45351;53.596;10.000;2022-07-06T04:35:27;24.90;50.50
59533;DHT22;45351;53.596;10.000;2022-07-06T04:37:55;24.80;50.40
59533;DHT22;45351;53.596;10.000;2022-07-06T04:40:24;24.80;50.30
59533;DHT22;45351;53.596;10.000;2022-07-06T04:42:56;24.80;50.30
59533;DHT22;45351;53.596;10.000;2022-07-06T04:45:24;24.90;50.30
59533;DHT22;45351;53.596;10.000;2022-07-06T04:47:52;24.90;50.30
59533;DHT22;45351;53.596;10.000;2022-07-06T04:50:19;24.90;50.30
59533;DHT22;45351;53.596;10.000;2022-07-06T04:52:47;24.90;50.30
59533;DHT22;45351;53.596;10.000;2022-07-06T04:55:14;24.90;50.20
59533;DHT22;45351;53.596;10.000;2022-07-06T04:57:43;24.90;50.20
59533;DHT22;45351;53.596;10.000;2022-07-06T05:00:12;24.90;50.20
59533;DHT22;45351;53.596;10.000;2022-07-06T05:02:40;24.90;50.20
59533;DHT22;45351;53.596;10.000;2022-07-06T05:05:08;24.90;50.10
59533;DHT22;45351;53.596;10.000;2022-07-06T05:07:36;24.90;50.10
59533;DHT22;45351;53.596;10.000;2022-07-06T05:10:07;24.90;50.00
59533;DHT22;45351;53.596;10.000;2022-07-06T05:12:34;24.90;50.00
59533;DHT22;45351;53.596;10.000;2022-07-06T05:15:04;24.90;50.00
59533;DHT22;45351;53.596;10.000;2022-07-06T05:17:31;24.80;49.80
59533;DHT22;45351;53.596;10.000;2022-07-06T05:20:00;24.90;49.80
59533;DHT22;45351;53.596;10.000;2022-07-06T05:22:31;24.80;49.60
59533;DHT22;45351;53.596;10.000;2022-07-06T05:24:58;24.80;49.60
59533;DHT22;45351;53.596;10.000;2022-07-06T05:27:25;24.80;49.60
59533;DHT22;45351;53.596;10.000;2022-07-06T05:29:53;24.80;49.60
59533;DHT22;45351;53.596;10.000;2022-07-06T05:32:21;24.90;49.70
59533;DHT22;45351;53.596;10.000;2022-07-06T05:34:50;24.80;49.50
59533;DHT22;45351;53.596;10.000;2022-07-06T05:37:19;24.80;49.50
59533;DHT22;45351;53.596;10.000;2022-07-06T05:39:46;24.40;49.10
59533;DHT22;45351;53.596;10.000;2022-07-06T05:42:15;23.90;48.90
59533;DHT22;45351;53.596;10.000;2022-07-06T05:44:43;23.60;50.10
59533;DHT22;45351;53.596;10.000;2022-07-06T05:47:10;23.40;50.20
59533;DHT22;45351;53.596;10.000;2022-07-06T05:49:56;23.30;50.00
59533;DHT22;45351;53.596;10.000;2022-07-06T05:52:42;23.20;50.70
59533;DHT22;45351;53.596;10.000;2022-07-06T05:55:11;23.10;50.50
59533;DHT22;45351;53.596;10.000;2022-07-06T05:57:38;23.10;50.90
59533;DHT22;45351;53.596;10.000;2022-07-06T06:00:07;23.10;51.00
59533;DHT22;45351;53.596;10.000;2022-07-06T06:02:42;23.00;50.10
59533;DHT22;45351;53.596;10.000;2022-07-06T06:05:16;22.80;49.80
59533;DHT22;45351;53.596;10.000;2022-07-06T06:07:45;22.60;49.10
59533;DHT22;45351;53.596;10.000;2022-07-06T06:10:14;22.40;49.10
59533;DHT22;45351;53.596;10.000;2022-07-06T06:12:43;22.20;50.10
59533;DHT22;45351;53.596;10.000;2022-07-06T06:15:11;22.10;51.10
59533;DHT22;45351;53.596;10.000;2022-07-06T06:17:39;22.20;51.30
59533;DHT22;45351;53.596;10.000;2022-07-06T06:20:08;22.00;50.50
59533;DHT22;45351;53.596;10.000;2022-07-06T06:22:48;22.00;51.40
59533;DHT22;45351;53.596;10.000;2022-07-06T06:25:16;22.00;51.40
59533;DHT22;45351;53.596;10.000;2022-07-06T06:27:45;22.00;50.50
59533;DHT22;45351;53.596;10.000;2022-07-06T06:30:12;22.00;52.00
59533;DHT22;45351;53.596;10.000;2022-07-06T06:32:40;22.10;51.00
59533;DHT22;45351;53.596;10.000;2022-07-06T06:35:07;22.30;51.00
59533;DHT22;45351;53.596;10.000;2022-07-06T06:37:34;22.50;50.90
59533;DHT22;45351;53.596;10.000;2022-07-06T06:40:03;22.60;50.40
59533;DHT22;45351;53.596;10.000;2022-07-06T06:42:30;22.60;50.10
59533;DHT22;45351;53.596;10.000;2022-07-06T06:44:58;22.40;49.60
59533;DHT22;45351;53.596;10.000;2022-07-06T06:47:25;22.40;49.60
59533;DHT22;45351;53.596;10.000;2022-07-06T06:49:52;22.30;49.80
59533;DHT22;45351;53.596;10.000;2022-07-06T06:52:19;22.30;49.30
59533;DHT22;45351;53.596;10.000;2022-07-06T06:54:45;22.00;50.80
59533;DHT22;45351;53.596;10.000;2022-07-06T06:57:14;22.10;51.20
59533;DHT22;45351;53.596;10.000;2022-07-06T06:59:40;22.50;51.50
59533;DHT22;45351;53.596;10.000;2022-07-06T07:02:07;22.90;50.80
59533;DHT22;45351;53.596;10.000;2022-07-06T07:04:34;23.30;50.30
59533;DHT22;45351;53.596;10.000;2022-07-06T07:07:01;23.50;49.80
59533;DHT22;45351;53.596;10.000;2022-07-06T07:09:28;23.70;49.40
59533;DHT22;45351;53.596;10.000;2022-07-06T07:11:55;23.90;49.10
59533;DHT22;45351;53.596;10.000;2022-07-06T07:14:23;24.10;48.90
59533;DHT22;45351;53.596;10.000;2022-07-06T07:16:50;24.20;48.80
59533;DHT22;45351;53.596;10.000;2022-07-06T07:19:16;24.20;48.50
59533;DHT22;45351;53.596;10.000;2022-07-06T07:21:43;24.30;48.40
59533;DHT22;45351;53.596;10.000;2022-07-06T07:24:10;24.40;48.30
59533;DHT22;45351;53.596;10.000;2022-07-06T07:26:37;24.40;48.10
59533;DHT22;45351;53.596;10.000;2022-07-06T07:29:04;24.50;48.10
59533;DHT22;45351;53.596;10.000;2022-07-06T07:31:32;24.50;48.00
59533;DHT22;45351;53.596;10.000;2022-07-06T07:33:59;24.50;47.90
59533;DHT22;45351;53.596;10.000;2022-07-06T07:36:26;24.60;47.90
59533;DHT22;45351;53.596;10.000;2022-07-06T07:38:53;24.60;47.80
59533;DHT22;45351;53.596;10.000;2022-07-06T07:41:20;24.60;47.80
59533;DHT22;45351;53.596;10.000;2022-07-06T07:43:46;24.60;47.70
59533;DHT22;45351;53.596;10.000;2022-07-06T07:46:13;24.60;47.60
59533;DHT22;45351;53.596;10.000;2022-07-06T07:48:41;24.60;47.60
59533;DHT22;45351;53.596;10.000;2022-07-06T07:51:09;24.60;47.50
59533;DHT22;45351;53.596;10.000;2022-07-06T07:53:35;24.70;47.60
59533;DHT22;45351;53.596;10.000;2022-07-06T07:56:03;24.70;47.60
59533;DHT22;45351;53.596;10.000;2022-07-06T07:58:30;24.70;47.50
59533;DHT22;45351;53.596;10.000;2022-07-06T08:00:57;24.70;47.40
59533;DHT22;45351;53.596;10.000;2022-07-06T08:03:24;24.70;47.40
59533;DHT22;45351;53.596;10.000;2022-07-06T08:05:52;24.70;47.40
59533;DHT22;45351;53.596;10.000;2022-07-06T08:08:20;24.70;47.30
59533;DHT22;45351;53.596;10.000;2022-07-06T08:10:47;24.70;47.20
59533;DHT22;45351;53.596;10.000;2022-07-06T08:13:14;24.70;47.20
59533;DHT22;45351;53.596;10.000;2022-07-06T08:15:41;24.70;47.20
59533;DHT22;45351;53.596;10.000;2022-07-06T08:18:08;24.70;47.20
59533;DHT22;45351;53.596;10.000;2022-07-06T08:20:36;24.80;47.30
59533;DHT22;45351;53.596;10.000;2022-07-06T08:23:05;24.80;47.20
59533;DHT22;45351;53.596;10.000;2022-07-06T08:25:32;24.80;47.10
59533;DHT22;45351;53.596;10.000;2022-07-06T08:27:59;24.80;47.10
59533;DHT22;45351;53.596;10.000;2022-07-06T08:30:25;24.80;47.10
59533;DHT22;45351;53.596;10.000;2022-07-06T08:32:52;24.80;47.10
59533;DHT22;45351;53.596;10.000;2022-07-06T08:35:19;24.80;47.10
59533;DHT22;45351;53.596;10.000;2022-07-06T08:37:46;24.80;47.00
59533;DHT22;45351;53.596;10.000;2022-07-06T08:40:14;24.80;47.00
59533;DHT22;45351;53.596;10.000;2022-07-06T08:42:42;24.80;46.90
59533;DHT22;45351;53.596;10.000;2022-07-06T08:45:10;24.80;47.00
59533;DHT22;45351;53.596;10.000;2022-07-06T08:47:37;24.80;46.90
59533;DHT22;45351;53.596;10.000;2022-07-06T08:50:05;24.80;46.90
59533;DHT22;45351;53.596;10.000;2022-07-06T08:52:34;24.80;46.90
59533;DHT22;45351;53.596;10.000;2022-07-06T08:55:02;24.80;46.90
59533;DHT22;45351;53.596;10.000;2022-07-06T08:57:31;24.80;46.90
59533;DHT22;45351;53.596;10.000;2022-07-06T08:59:58;24.80;46.80
59533;DHT22;45351;53.596;10.000;2022-07-06T09:02:25;24.80;46.90
59533;DHT22;45351;53.596;10.000;2022-07-06T09:04:54;24.80;46.80
59533;DHT22;45351;53.596;10.000;2022-07-06T09:07:24;24.80;46.80
59533;DHT22;45351;53.596;10.000;2022-07-06T09:09:54;24.80;46.80
59533;DHT22;45351;53.596;10.000;2022-07-06T09:12:22;24.80;46.80
59533;DHT22;45351;53.596;10.000;2022-07-06T09:14:50;24.80;46.80
59533;DHT22;45351;53.596;10.000;2022-07-06T09:17:17;24.80;46.80
59533;DHT22;45351;53.596;10.000;2022-07-06T09:19:45;24.80;46.80
59533;DHT22;45351;53.596;10.000;2022-07-06T09:22:25;24.80;46.80
59533;DHT22;45351;53.596;10.000;2022-07-06T09:24:52;24.80;46.90
59533;DHT22;45351;53.596;10.000;2022-07-06T09:27:19;24.80;46.90
59533;DHT22;45351;53.596;10.000;2022-07-06T09:29:46;24.80;46.80
59533;DHT22;45351;53.596;10.000;2022-07-06T09:32:19;24.80;46.70
59533;DHT22;45351;53.596;10.000;2022-07-06T09:34:47;24.90;46.50
59533;DHT22;45351;53.596;10.000;2022-07-06T09:37:15;24.80;46.50
59533;DHT22;45351;53.596;10.000;2022-07-06T09:39:43;24.90;46.60
59533;DHT22;45351;53.596;10.000;2022-07-06T09:42:11;24.90;46.60
59533;DHT22;45351;53.596;10.000;2022-07-06T09:44:39;24.90;46.60
59533;DHT22;45351;53.596;10.000;2022-07-06T09:47:07;24.90;46.50
59533;DHT22;45351;53.596;10.000;2022-07-06T09:49:37;24.90;46.50
59533;DHT22;45351;53.596;10.000;2022-07-06T09:52:05;24.90;46.50
59533;DHT22;45351;53.596;10.000;2022-07-06T09:54:34;24.90;46.50
59533;DHT22;45351;53.596;10.000;2022-07-06T09:57:01;24.90;46.50
59533;DHT22;45351;53.596;10.000;2022-07-06T09:59:29;24.90;46.50
59533;DHT22;45351;53.596;10.000;2022-07-06T10:01:58;24.90;46.40
59533;DHT22;45351;53.596;10.000;2022-07-06T10:04:25;24.90;46.40
59533;DHT22;45351;53.596;10.000;2022-07-06T10:06:54;24.90;46.40
59533;DHT22;45351;53.596;10.000;2022-07-06T10:09:23;24.90;46.40
59533;DHT22;45351;53.596;10.000;2022-07-06T10:11:52;24.90;46.40
59533;DHT22;45351;53.596;10.000;2022-07-06T10:14:21;24.90;46.30
59533;DHT22;45351;53.596;10.000;2022-07-06T10:16:49;24.90;46.30
59533;DHT22;45351;53.596;10.000;2022-07-06T10:19:18;24.90;46.30
59533;DHT22;45351;53.596;10.000;2022-07-06T10:21:45;24.90;46.30
59533;DHT22;45351;53.596;10.000;2022-07-06T10:24:14;24.90;46.20
59533;DHT22;45351;53.596;10.000;2022-07-06T10:26:41;24.90;46.20
59533;DHT22;45351;53.596;10.000;2022-07-06T10:29:08;24.90;46.20
59533;DHT22;45351;53.596;10.000;2022-07-06T10:31:38;24.90;46.30
59533;DHT22;45351;53.596;10.000;2022-07-06T10:34:07;24.90;46.20
59533;DHT22;45351;53.596;10.000;2022-07-06T10:36:38;24.90;46.20
59533;DHT22;45351;53.596;10.000;2022-07-06T10:39:06;24.90;46.10
59533;DHT22;45351;53.596;10.000;2022-07-06T10:41:48;24.90;46.30
59533;DHT22;45351;53.596;10.000;2022-07-06T10:44:16;24.90;46.40
59533;DHT22;45351;53.596;10.000;2022-07-06T10:46:50;24.90;46.40
59533;DHT22;45351;53.596;10.000;2022-07-06T10:49:19;24.90;46.40
59533;DHT22;45351;53.596;10.000;2022-07-06T10:51:47;24.90;46.50
59533;DHT22;45351;53.596;10.000;2022-07-06T10:54:15;24.90;46.50
59533;DHT22;45351;53.596;10.000;2022-07-06T10:56:44;24.90;46.50
59533;DHT22;45351;53.596;10.000;2022-07-06T10:59:13;24.90;46.70
59533;DHT22;45351;53.596;10.000;2022-07-06T11:01:41;24.90;46.50
59533;DHT22;45351;53.596;10.000;2022-07-06T11:04:32;24.90;46.50
59533;DHT22;45351;53.596;10.000;2022-07-06T11:07:07;24.90;46.50
59533;DHT22;45351;53.596;10.000;2022-07-06T11:09:35;24.90;46.60
59533;DHT22;45351;53.596;10.000;2022-07-06T11:12:12;24.90;46.60
59533;DHT22;45351;53.596;10.000;2022-07-06T11:14:40;24.90;46.60
59533;DHT22;45351;53.596;10.000;2022-07-06T11:17:10;24.90;46.60
59533;DHT22;45351;53.596;10.000;2022-07-06T11:19:42;24.90;46.70
59533;DHT22;45351;53.596;10.000;2022-07-06T11:22:15;24.90;46.70
59533;DHT22;45351;53.596;10.000;2022-07-06T11:24:43;24.90;46.70
59533;DHT22;45351;53.596;10.000;2022-07-06T11:27:10;24.90;46.70
59533;DHT22;45351;53.596;10.000;2022-07-06T11:29:37;24.90;46.70
59533;DHT22;45351;53.596;10.000;2022-07-06T11:32:06;24.90;46.70
59533;DHT22;45351;53.596;10.000;2022-07-06T11:34:36;24.90;46.70
59533;DHT22;45351;53.596;10.000;2022-07-06T11:37:07;24.90;46.70
59533;DHT22;45351;53.596;10.000;2022-07-06T11:39:35;24.90;46.70
59533;DHT22;45351;53.596;10.000;2022-07-06T11:42:05;24.90;46.70
59533;DHT22;45351;53.596;10.000;2022-07-06T11:44:33;24.90;46.70
59533;DHT22;45351;53.596;10.000;2022-07-06T11:47:00;24.90;46.70
59533;DHT22;45351;53.596;10.000;2022-07-06T11:49:29;24.90;46.80
59533;DHT22;45351;53.596;10.000;2022-07-06T11:51:57;24.90;46.80
59533;DHT22;45351;53.596;10.000;2022-07-06T11:54:26;24.90;46.80
59533;DHT22;45351;53.596;10.000;2022-07-06T11:56:55;24.90;46.90
59533;DHT22;45351;53.596;10.000;2022-07-06T11:59:23;24.90;46.90
59533;DHT22;45351;53.596;10.000;2022-07-06T12:01:57;24.90;46.90
59533;DHT22;45351;53.596;10.000;2022-07-06T12:04:25;24.90;46.90
59533;DHT22;45351;53.596;10.000;2022-07-06T12:06:52;24.90;46.80
59533;DHT22;45351;53.596;10.000;2022-07-06T12:09:19;24.90;47.40
59533;DHT22;45351;53.596;10.000;2022-07-06T12:11:47;24.90;46.80
59533;DHT22;45351;53.596;10.000;2022-07-06T12:14:16;25.00;46.80
59533;DHT22;45351;53.596;10.000;2022-07-06T12:16:44;25.00;46.70
59533;DHT22;45351;53.596;10.000;2022-07-06T12:19:11;25.00;46.70
59533;DHT22;45351;53.596;10.000;2022-07-06T12:21:43;25.00;46.70
59533;DHT22;45351;53.596;10.000;2022-07-06T12:24:17;25.00;46.70
59533;DHT22;45351;53.596;10.000;2022-07-06T12:26:44;25.00;46.70
59533;DHT22;45351;53.596;10.000;2022-07-06T12:29:13;25.00;46.60
59533;DHT22;45351;53.596;10.000;2022-07-06T12:31:42;25.00;46.60
59533;DHT22;45351;53.596;10.000;2022-07-06T12:34:14;25.00;47.10
59533;DHT22;45351;53.596;10.000;2022-07-06T12:36:46;25.00;46.70
59533;DHT22;45351;53.596;10.000;2022-07-06T12:39:15;25.00;46.50
59533;DHT22;45351;53.596;10.000;2022-07-06T12:41:47;25.00;46.40
59533;DHT22;45351;53.596;10.000;2022-07-06T12:44:17;25.00;46.40
59533;DHT22;45351;53.596;10.000;2022-07-06T12:46:44;25.00;46.40
59533;DHT22;45351;53.596;10.000;2022-07-06T12:49:14;25.00;46.30
59533;DHT22;45351;53.596;10.000;2022-07-06T12:51:53;25.00;46.30
59533;DHT22;45351;53.596;10.000;2022-07-06T12:54:20;25.00;46.20
59533;DHT22;45351;53.596;10.000;2022-07-06T12:57:02;25.00;46.30
59533;DHT22;45351;53.596;10.000;2022-07-06T12:59:32;25.00;46.30
59533;DHT22;45351;53.596;10.000;2022-07-06T13:02:00;25.00;46.30
59533;DHT22;45351;53.596;10.000;2022-07-06T13:04:28;25.00;46.30
59533;DHT22;45351;53.596;10.000;2022-07-06T13:06:57;25.00;46.30
59533;DHT22;45351;53.596;10.000;2022-07-06T13:09:24;25.00;46.20
59533;DHT22;45351;53.596;10.000;2022-07-06T13:11:51;25.00;46.10
59533;DHT22;45351;53.596;10.000;2022-07-06T13:14:19;25.00;46.10
59533;DHT22;45351;53.596;10.000;2022-07-06T13:16:48;25.00;46.10
59533;DHT22;45351;53.596;10.000;2022-07-06T13:19:15;25.00;46.00
59533;DHT22;45351;53.596;10.000;2022-07-06T13:21:42;25.00;46.10
59533;DHT22;45351;53.596;10.000;2022-07-06T13:24:10;25.00;46.10
59533;DHT22;45351;53.596;10.000;2022-07-06T13:26:37;25.00;46.10
59533;DHT22;45351;53.596;10.000;2022-07-06T13:29:04;25.00;46.10
59533;DHT22;45351;53.596;10.000;2022-07-06T13:31:31;25.00;46.10
59533;DHT22;45351;53.596;10.000;2022-07-06T13:33:59;25.00;46.10
59533;DHT22;45351;53.596;10.000;2022-07-06T13:36:27;25.00;46.00
59533;DHT22;45351;53.596;10.000;2022-07-06T13:38:53;25.00;46.10
59533;DHT22;45351;53.596;10.000;2022-07-06T13:41:20;25.00;46.00
59533;DHT22;45351;53.596;10.000;2022-07-06T13:43:47;25.10;46.10
59533;DHT22;45351;53.596;10.000;2022-07-06T13:46:14;25.00;45.90
59533;DHT22;45351;53.596;10.000;2022-07-06T13:48:42;25.00;45.90
59533;DHT22;45351;53.596;10.000;2022-07-06T13:51:11;25.00;45.90
59533;DHT22;45351;53.596;10.000;2022-07-06T13:53:38;25.10;45.90
59533;DHT22;45351;53.596;10.000;2022-07-06T13:56:05;25.00;45.90
59533;DHT22;45351;53.596;10.000;2022-07-06T13:58:33;25.00;45.90
59533;DHT22;45351;53.596;10.000;2022-07-06T14:01:00;25.00;45.80
59533;DHT22;45351;53.596;10.000;2022-07-06T14:03:27;25.10;45.90
59533;DHT22;45351;53.596;10.000;2022-07-06T14:05:56;25.00;45.80
59533;DHT22;45351;53.596;10.000;2022-07-06T14:08:25;25.00;45.70
59533;DHT22;45351;53.596;10.000;2022-07-06T14:10:52;25.10;45.90
59533;DHT22;45351;53.596;10.000;2022-07-06T14:13:20;25.10;45.90
59533;DHT22;45351;53.596;10.000;2022-07-06T14:15:47;25.10;45.90
59533;DHT22;45351;53.596;10.000;2022-07-06T14:18:15;25.10;45.70
59533;DHT22;45351;53.596;10.000;2022-07-06T14:20:43;25.10;45.70
59533;DHT22;45351;53.596;10.000;2022-07-06T14:23:10;25.10;45.80
59533;DHT22;45351;53.596;10.000;2022-07-06T14:25:38;25.10;45.70
59533;DHT22;45351;53.596;10.000;2022-07-06T14:28:06;25.10;45.60
59533;DHT22;45351;53.596;10.000;2022-07-06T14:30:33;25.10;45.60
59533;DHT22;45351;53.596;10.000;2022-07-06T14:33:02;25.10;45.70
59533;DHT22;45351;53.596;10.000;2022-07-06T14:35:33;25.10;45.70
59533;DHT22;45351;53.596;10.000;2022-07-06T14:38:01;25.10;45.60
59533;DHT22;45351;53.596;10.000;2022-07-06T14:40:28;25.10;45.60
59533;DHT22;45351;53.596;10.000;2022-07-06T14:42:57;25.10;45.60
59533;DHT22;45351;53.596;10.000;2022-07-06T14:45:24;25.10;45.40
59533;DHT22;45351;53.596;10.000;2022-07-06T14:47:51;24.90;43.10
59533;DHT22;45351;53.596;10.000;2022-07-06T14:50:18;24.60;41.50
59533;DHT22;45351;53.596;10.000;2022-07-06T14:52:45;24.40;41.50
59533;DHT22;45351;53.596;10.000;2022-07-06T14:55:11;24.10;40.30
59533;DHT22;45351;53.596;10.000;2022-07-06T14:57:38;23.80;41.00
59533;DHT22;45351;53.596;10.000;2022-07-06T15:00:08;23.80;42.00
59533;DHT22;45351;53.596;10.000;2022-07-06T15:02:35;23.80;43.20
59533;DHT22;45351;53.596;10.000;2022-07-06T15:05:03;23.80;42.00
59533;DHT22;45351;53.596;10.000;2022-07-06T15:07:30;23.70;42.70
59533;DHT22;45351;53.596;10.000;2022-07-06T15:09:56;23.60;41.40
59533;DHT22;45351;53.596;10.000;2022-07-06T15:12:23;23.50;41.90
59533;DHT22;45351;53.596;10.000;2022-07-06T15:14:50;23.60;42.30
59533;DHT22;45351;53.596;10.000;2022-07-06T15:17:18;23.50;42.10
59533;DHT22;45351;53.596;10.000;2022-07-06T15:19:45;23.40;43.00
59533;DHT22;45351;53.596;10.000;2022-07-06T15:22:12;23.30;42.10
59533;DHT22;45351;53.596;10.000;2022-07-06T15:24:39;23.20;42.40